Terminal Aerodrome Forecast
Issued by NWS Paducah, KY

Home | Current Version | Previous Version | Text Only | Print | Product List | Glossary On
Versions: 1 2 3 4 5 6 7 8 9 10 11 12 13 14 15 16 17
000
FTUS43 KPAH 290500
TAFPAH
TAF
KPAH 290520Z 2906/3006 00000KT P6SM SKC
     FM290700 00000KT 5SM BR MIFG SKC
     FM291400 36006KT P6SM FEW050
     FM300000 00000KT P6SM SKC=

USA.gov is the U.S. government's official web portal to all federal, state and local government web resources and services.